Time;durP1;ratioP1;P1;durP2;ratioP2;P2;SDS_P1;SDS_P2;PMS_P1;PMS_P2;Temp;Humidity;BMP_temperature;BMP_pressure;BME280_temperature;BME280_humidity;BME280_pressure;Samples;Min_cycle;Max_cycle;Signal;HPM_P1;HPM_P2
2022/10/17 00:01:57;;;;;;;;;;;16.70;99.90;;;;;;5081681;28;19912;-76
2022/10/17 00:04:22;;;;;;;;;;;16.60;99.90;;;;;;5074609;28;19998;-76
2022/10/17 00:06:48;;;;;;;;;;;16.60;99.90;;;;;;5084450;28;19932;-76
2022/10/17 00:09:13;;;;;;;;;;;16.60;99.90;;;;;;5099919;27;19916;-76
2022/10/17 00:11:39;;;;;;;;;;;16.70;99.90;;;;;;5089217;28;19996;-76
2022/10/17 00:14:04;;;;;;;;;;;16.70;99.90;;;;;;5085647;28;20006;-76
2022/10/17 00:16:32;;;;;;;;;;;16.80;99.90;;;;;;5106638;28;19922;-76
2022/10/17 00:18:58;;;;;;;;;;;16.80;99.90;;;;;;5107016;28;19977;-76
2022/10/17 00:21:24;;;;;;;;;;;16.80;99.90;;;;;;5081550;28;20370;-77
2022/10/17 00:23:49;;;;;;;;;;;16.80;99.90;;;;;;5097846;28;19926;-76
2022/10/17 00:26:15;;;;;;;;;;;16.80;99.90;;;;;;5105204;28;20394;-76
2022/10/17 00:28:40;;;;;;;;;;;16.80;99.90;;;;;;5092451;28;19928;-76
2022/10/17 00:31:06;;;;;;;;;;;16.80;99.90;;;;;;5087365;28;19920;-76
2022/10/17 00:33:32;;;;;;;;;;;16.80;99.90;;;;;;5086746;28;19942;-76
2022/10/17 00:36:07;;;;;;;;;;;16.80;99.90;;;;;;5084551;28;20290;-76
2022/10/17 00:38:32;;;;;;;;;;;16.90;99.90;;;;;;5082678;28;19985;-76
2022/10/17 00:40:58;;;;;;;;;;;16.90;99.90;;;;;;5106322;28;19916;-76
2022/10/17 00:43:23;;;;;;;;;;;16.90;99.90;;;;;;5068513;28;19981;-76
2022/10/17 00:45:49;;;;;;;;;;;16.90;99.90;;;;;;5085342;28;19916;-76
2022/10/17 00:48:15;;;;;;;;;;;16.90;99.90;;;;;;5076238;28;19992;-76
2022/10/17 00:50:42;;;;;;;;;;;16.80;99.90;;;;;;5082059;28;19928;-76
2022/10/17 00:53:08;;;;;;;;;;;16.80;99.90;;;;;;5091921;28;20335;-76
2022/10/17 00:55:36;;;;;;;;;;;16.70;99.90;;;;;;5066166;28;19944;-76
2022/10/17 00:58:02;;;;;;;;;;;16.70;99.90;;;;;;5070294;28;19916;-76
2022/10/17 01:00:28;;;;;;;;;;;16.70;99.90;;;;;;5101602;28;19915;-76
2022/10/17 01:02:53;;;;;;;;;;;16.60;99.90;;;;;;5067052;28;20342;-76
2022/10/17 01:05:19;;;;;;;;;;;16.70;99.90;;;;;;5072275;28;19955;-75
2022/10/17 01:07:46;;;;;;;;;;;16.60;99.90;;;;;;5067986;28;19924;-76
2022/10/17 01:10:12;;;;;;;;;;;16.70;99.90;;;;;;5069933;28;19980;-76
2022/10/17 01:12:41;;;;;;;;;;;16.70;99.90;;;;;;5100126;28;19972;-76
2022/10/17 01:15:36;;;;;;;;;;;16.60;99.90;;;;;;5093653;28;20318;-76
2022/10/17 01:18:34;;;;;;;;;;;16.60;99.90;;;;;;5051896;28;19920;-76
2022/10/17 01:21:15;;;;;;;;;;;16.60;99.90;;;;;;5040001;28;20364;-76
2022/10/17 01:23:46;;;;;;;;;;;16.60;99.90;;;;;;5052211;28;19920;-76
2022/10/17 01:26:12;;;;;;;;;;;16.60;99.90;;;;;;5066066;28;19917;-76
2022/10/17 01:28:40;;;;;;;;;;;16.60;99.90;;;;;;5065796;28;19947;-76
2022/10/17 01:31:13;;;;;;;;;;;16.60;99.90;;;;;;5088296;28;19928;-76
2022/10/17 01:33:44;;;;;;;;;;;16.60;99.90;;;;;;5098201;28;19912;-75
2022/10/17 01:36:13;;;;;;;;;;;16.70;99.90;;;;;;5065984;28;19993;-76
2022/10/17 01:38:44;;;;;;;;;;;16.60;99.90;;;;;;5101881;28;19916;-76
2022/10/17 01:41:15;;;;;;;;;;;16.50;99.90;;;;;;5067763;28;19916;-76
2022/10/17 01:44:01;;;;;;;;;;;16.50;99.90;;;;;;5065823;28;19957;-77
2022/10/17 01:46:29;;;;;;;;;;;16.50;99.90;;;;;;5090941;28;19916;-76
2022/10/17 01:48:57;;;;;;;;;;;16.50;99.90;;;;;;5104998;28;19918;-76
2022/10/17 01:51:26;;;;;;;;;;;16.50;99.90;;;;;;5067335;28;19920;-76
2022/10/17 01:53:55;;;;;;;;;;;16.40;99.90;;;;;;5085109;28;20005;-76
2022/10/17 01:56:23;;;;;;;;;;;16.50;99.90;;;;;;5104306;28;19919;-75
2022/10/17 01:58:51;;;;;;;;;;;16.50;99.90;;;;;;5101028;28;19950;-76
2022/10/17 02:01:17;;;;;;;;;;;16.50;99.90;;;;;;5065874;28;20877;-76
2022/10/17 02:03:44;;;;;;;;;;;16.50;99.90;;;;;;5083848;28;19924;-75
2022/10/17 02:06:09;;;;;;;;;;;16.50;99.90;;;;;;5096388;28;19951;-76
2022/10/17 02:08:46;;;;;;;;;;;16.60;99.90;;;;;;5099349;27;20370;-76
2022/10/17 02:11:21;;;;;;;;;;;16.50;99.90;;;;;;5066282;28;19947;-76
2022/10/17 02:13:54;;;;;;;;;;;16.40;99.90;;;;;;5069946;28;19908;-76
2022/10/17 02:16:19;;;;;;;;;;;16.40;99.90;;;;;;5061238;28;19916;-76
2022/10/17 02:19:05;;;;;;;;;;;16.50;99.90;;;;;;5063444;28;20357;-76
2022/10/17 02:21:43;;;;;;;;;;;16.40;99.90;;;;;;5038292;28;19916;-76
2022/10/17 02:24:27;;;;;;;;;;;16.50;99.90;;;;;;5079959;28;20021;-76
2022/10/17 02:27:02;;;;;;;;;;;16.50;99.90;;;;;;5083704;28;19924;-76
2022/10/17 02:29:30;;;;;;;;;;;16.50;99.90;;;;;;5068539;28;19942;-76
2022/10/17 02:32:04;;;;;;;;;;;16.50;99.90;;;;;;5101609;28;19988;-76
2022/10/17 02:34:32;;;;;;;;;;;16.50;99.90;;;;;;5098251;28;19942;-76
2022/10/17 02:36:59;;;;;;;;;;;16.60;99.90;;;;;;5089904;28;19920;-77
2022/10/17 02:39:25;;;;;;;;;;;16.60;99.90;;;;;;5084282;28;20401;-76
2022/10/17 02:41:52;;;;;;;;;;;16.60;99.90;;;;;;5084582;28;20412;-76
2022/10/17 02:44:19;;;;;;;;;;;16.50;99.90;;;;;;5096525;28;19915;-76
2022/10/17 02:46:51;;;;;;;;;;;16.50;99.90;;;;;;5087275;28;19942;-76
2022/10/17 02:49:19;;;;;;;;;;;16.50;99.90;;;;;;5105730;28;19916;-76
2022/10/17 02:51:48;;;;;;;;;;;16.50;99.90;;;;;;5081462;28;19923;-76
2022/10/17 02:54:33;;;;;;;;;;;16.50;99.90;;;;;;5088596;28;19922;-76
2022/10/17 02:57:01;;;;;;;;;;;16.50;99.90;;;;;;5075525;28;19927;-76
2022/10/17 02:59:28;;;;;;;;;;;16.50;99.90;;;;;;5074242;28;20262;-76
2022/10/17 03:01:54;;;;;;;;;;;16.50;99.90;;;;;;5084302;28;19912;-76
2022/10/17 03:04:20;;;;;;;;;;;16.50;99.90;;;;;;5088349;28;20164;-76
2022/10/17 03:06:46;;;;;;;;;;;16.50;99.90;;;;;;5084873;28;20438;-76
2022/10/17 03:09:13;;;;;;;;;;;16.40;99.90;;;;;;5080934;28;19919;-76
2022/10/17 03:11:38;;;;;;;;;;;16.40;99.90;;;;;;5081782;28;19935;-76
2022/10/17 03:14:04;;;;;;;;;;;16.40;99.90;;;;;;5062809;28;19969;-76
2022/10/17 03:16:29;;;;;;;;;;;16.30;99.90;;;;;;5063048;28;19927;-76
2022/10/17 03:18:55;;;;;;;;;;;16.20;99.90;;;;;;5079510;28;19920;-76
2022/10/17 03:21:20;;;;;;;;;;;16.10;99.90;;;;;;5072119;28;19966;-76
2022/10/17 03:23:46;;;;;;;;;;;16.10;99.90;;;;;;5061335;28;19916;-76
2022/10/17 03:26:11;;;;;;;;;;;16.10;99.90;;;;;;5080811;28;19912;-76
2022/10/17 03:28:37;;;;;;;;;;;16.20;99.90;;;;;;5081853;28;20305;-77
2022/10/17 03:31:07;;;;;;;;;;;16.10;99.90;;;;;;5080762;28;20018;-76
2022/10/17 03:33:32;;;;;;;;;;;16.10;99.90;;;;;;5063441;28;19916;-76
2022/10/17 03:35:58;;;;;;;;;;;16.20;99.90;;;;;;5089564;28;19926;-76
2022/10/17 03:38:23;;;;;;;;;;;16.20;99.90;;;;;;5101447;28;19964;-75
2022/10/17 03:40:55;;;;;;;;;;;16.20;99.90;;;;;;5107670;28;19923;-76
2022/10/17 03:43:20;;;;;;;;;;;16.30;99.90;;;;;;5108634;28;19920;-76
2022/10/17 03:45:46;;;;;;;;;;;16.20;99.90;;;;;;5069613;28;20015;-76
2022/10/17 03:48:11;;;;;;;;;;;16.20;99.90;;;;;;5101072;28;19919;-76
2022/10/17 03:50:37;;;;;;;;;;;16.20;99.90;;;;;;5091600;28;19915;-76
2022/10/17 03:53:02;;;;;;;;;;;16.30;99.90;;;;;;5087776;28;19946;-76
2022/10/17 03:55:28;;;;;;;;;;;16.20;99.90;;;;;;5074424;28;19912;-76
2022/10/17 03:57:53;;;;;;;;;;;16.30;99.90;;;;;;5080640;28;19916;-76
2022/10/17 04:00:19;;;;;;;;;;;16.30;99.90;;;;;;5087248;28;20053;-76
2022/10/17 04:02:44;;;;;;;;;;;16.30;99.90;;;;;;5067885;28;19920;-76
2022/10/17 04:05:10;;;;;;;;;;;16.30;99.90;;;;;;5099669;28;20255;-76
2022/10/17 04:07:36;;;;;;;;;;;16.30;99.90;;;;;;5086156;28;20030;-76
2022/10/17 04:10:02;;;;;;;;;;;16.40;99.90;;;;;;5099603;27;19995;-76
2022/10/17 04:12:28;;;;;;;;;;;16.40;99.90;;;;;;5089552;28;20228;-76
2022/10/17 04:14:53;;;;;;;;;;;16.30;99.90;;;;;;5087012;28;20428;-76
2022/10/17 04:17:19;;;;;;;;;;;16.40;99.90;;;;;;5068304;28;19963;-75
2022/10/17 04:19:44;;;;;;;;;;;16.30;99.90;;;;;;5091856;28;19920;-76
2022/10/17 04:22:10;;;;;;;;;;;16.30;99.90;;;;;;5090004;28;19918;-76
2022/10/17 04:24:35;;;;;;;;;;;16.30;99.90;;;;;;5106623;28;20353;-76
2022/10/17 04:27:01;;;;;;;;;;;16.20;99.90;;;;;;5087267;28;19927;-76
2022/10/17 04:29:26;;;;;;;;;;;16.20;99.90;;;;;;5067663;28;19918;-76
2022/10/17 04:31:52;;;;;;;;;;;16.20;99.90;;;;;;5091326;28;19924;-76
2022/10/17 04:34:17;;;;;;;;;;;16.20;99.90;;;;;;5068604;28;19966;-76
2022/10/17 04:36:43;;;;;;;;;;;16.20;99.90;;;;;;5085240;28;19926;-76
2022/10/17 04:39:08;;;;;;;;;;;16.20;99.90;;;;;;5107076;28;19912;-76
2022/10/17 04:41:34;;;;;;;;;;;16.20;99.90;;;;;;5068288;28;19959;-76
2022/10/17 04:43:59;;;;;;;;;;;16.20;99.90;;;;;;5084731;28;20260;-76
2022/10/17 04:46:25;;;;;;;;;;;16.10;99.90;;;;;;5085164;28;19912;-76
2022/10/17 04:48:50;;;;;;;;;;;16.10;99.90;;;;;;5080473;28;19921;-76
2022/10/17 04:51:17;;;;;;;;;;;16.20;99.90;;;;;;5082441;28;19931;-77
2022/10/17 04:53:43;;;;;;;;;;;16.20;99.90;;;;;;5075365;28;19916;-76
2022/10/17 04:56:10;;;;;;;;;;;16.20;99.90;;;;;;5063779;28;19980;-76
2022/10/17 04:58:35;;;;;;;;;;;16.30;99.90;;;;;;5065936;28;19912;-77
2022/10/17 05:01:05;;;;;;;;;;;16.30;99.90;;;;;;5096952;28;19927;-76
2022/10/17 05:03:31;;;;;;;;;;;16.30;99.90;;;;;;5099511;28;19932;-76
2022/10/17 05:05:56;;;;;;;;;;;16.20;99.90;;;;;;5083470;28;19916;-76
2022/10/17 05:08:22;;;;;;;;;;;16.20;99.90;;;;;;5083183;28;20268;-76
2022/10/17 05:10:47;;;;;;;;;;;16.20;99.90;;;;;;5083321;28;20023;-76
2022/10/17 05:13:13;;;;;;;;;;;16.10;99.90;;;;;;5083737;28;19931;-76
2022/10/17 05:15:39;;;;;;;;;;;16.10;99.90;;;;;;5098757;28;19912;-76
2022/10/17 05:18:05;;;;;;;;;;;16.10;99.90;;;;;;5088140;28;20363;-76
2022/10/17 05:20:30;;;;;;;;;;;16.20;99.90;;;;;;5105223;28;19978;-76
2022/10/17 05:22:57;;;;;;;;;;;16.20;99.90;;;;;;5099125;28;19939;-77
2022/10/17 05:25:23;;;;;;;;;;;16.20;99.90;;;;;;5092666;28;19960;-77
2022/10/17 05:27:48;;;;;;;;;;;16.20;99.90;;;;;;5106187;28;20011;-77
2022/10/17 05:30:14;;;;;;;;;;;16.20;99.90;;;;;;5111948;27;19912;-77
2022/10/17 05:32:39;;;;;;;;;;;16.20;99.90;;;;;;5085116;28;19924;-77
2022/10/17 05:35:05;;;;;;;;;;;16.20;99.90;;;;;;5075599;28;19919;-77
2022/10/17 05:37:31;;;;;;;;;;;16.10;99.90;;;;;;5087239;28;19982;-77
2022/10/17 05:39:56;;;;;;;;;;;16.10;99.90;;;;;;5087732;28;20432;-77
2022/10/17 05:42:22;;;;;;;;;;;16.10;99.90;;;;;;5095970;28;19963;-77
2022/10/17 05:44:48;;;;;;;;;;;16.10;99.90;;;;;;5085249;28;20415;-77
2022/10/17 05:47:13;;;;;;;;;;;16.10;99.90;;;;;;5084869;28;19916;-77
2022/10/17 05:49:39;;;;;;;;;;;16.10;99.90;;;;;;5067329;28;19928;-77
2022/10/17 05:52:04;;;;;;;;;;;16.10;99.90;;;;;;5066952;28;20270;-77
2022/10/17 05:54:30;;;;;;;;;;;16.20;99.90;;;;;;5087233;28;19912;-77
2022/10/17 05:56:55;;;;;;;;;;;16.20;99.90;;;;;;5098550;28;19960;-78
2022/10/17 05:59:23;;;;;;;;;;;16.10;99.90;;;;;;5065838;28;19970;-77
2022/10/17 06:01:48;;;;;;;;;;;16.10;99.90;;;;;;5070025;28;19966;-78
2022/10/17 06:04:14;;;;;;;;;;;16.10;99.90;;;;;;5080327;28;20403;-77
2022/10/17 06:06:39;;;;;;;;;;;16.10;99.90;;;;;;5083993;28;20001;-77
2022/10/17 06:09:06;;;;;;;;;;;16.10;99.90;;;;;;5066231;28;19970;-77
2022/10/17 06:11:32;;;;;;;;;;;16.10;99.90;;;;;;5057202;28;19931;-76
2022/10/17 06:13:58;;;;;;;;;;;16.10;99.90;;;;;;5075008;28;20006;-77
2022/10/17 06:16:23;;;;;;;;;;;16.00;99.90;;;;;;5086080;28;19915;-77
2022/10/17 06:18:49;;;;;;;;;;;16.00;99.90;;;;;;5086036;28;19923;-77
2022/10/17 06:21:15;;;;;;;;;;;16.00;99.90;;;;;;5070706;28;19916;-77
2022/10/17 06:23:41;;;;;;;;;;;16.00;99.90;;;;;;5088148;28;19924;-77
2022/10/17 06:26:07;;;;;;;;;;;16.00;99.90;;;;;;5071702;28;19916;-76
2022/10/17 06:28:32;;;;;;;;;;;16.00;99.90;;;;;;5084353;28;19916;-77
2022/10/17 06:30:58;;;;;;;;;;;16.00;99.90;;;;;;5095118;28;19947;-78
2022/10/17 06:33:24;;;;;;;;;;;16.00;99.90;;;;;;5082822;28;20014;-77
2022/10/17 06:35:50;;;;;;;;;;;16.00;99.90;;;;;;5093992;28;19916;-77
2022/10/17 06:38:15;;;;;;;;;;;16.00;99.90;;;;;;5080270;28;20413;-78
2022/10/17 06:40:41;;;;;;;;;;;16.00;99.90;;;;;;5075132;28;20118;-77
2022/10/17 06:43:06;;;;;;;;;;;16.00;99.90;;;;;;5092859;27;20000;-77
2022/10/17 06:45:32;;;;;;;;;;;15.90;99.90;;;;;;5090953;27;19939;-76
2022/10/17 06:47:57;;;;;;;;;;;15.90;99.90;;;;;;5076084;28;20005;-77
2022/10/17 06:50:23;;;;;;;;;;;15.90;99.90;;;;;;5065219;28;19919;-78
2022/10/17 06:52:51;;;;;;;;;;;15.90;99.90;;;;;;5062878;28;20375;-78
2022/10/17 06:55:17;;;;;;;;;;;15.90;99.90;;;;;;5065666;28;19926;-78
2022/10/17 06:57:42;;;;;;;;;;;16.00;99.90;;;;;;5085532;28;20007;-78
2022/10/17 07:00:08;;;;;;;;;;;15.90;99.90;;;;;;5062379;28;19916;-77
2022/10/17 07:02:34;;;;;;;;;;;15.90;99.90;;;;;;5065178;28;19916;-77
2022/10/17 07:04:59;;;;;;;;;;;15.90;99.90;;;;;;5083574;28;19923;-78
2022/10/17 07:07:25;;;;;;;;;;;15.90;99.90;;;;;;5083782;28;19969;-78
2022/10/17 07:09:50;;;;;;;;;;;15.90;99.90;;;;;;5097659;28;20033;-77
2022/10/17 07:12:16;;;;;;;;;;;15.90;99.90;;;;;;5061520;28;20102;-78
2022/10/17 07:14:41;;;;;;;;;;;15.90;99.90;;;;;;5081999;28;19916;-77
2022/10/17 07:17:07;;;;;;;;;;;15.90;99.90;;;;;;5061209;28;19920;-78
2022/10/17 07:19:32;;;;;;;;;;;15.90;99.90;;;;;;5081456;28;19916;-77
2022/10/17 07:21:58;;;;;;;;;;;15.90;99.90;;;;;;5084524;28;19978;-78
2022/10/17 07:24:23;;;;;;;;;;;15.90;99.90;;;;;;5073755;28;19923;-78
2022/10/17 07:26:49;;;;;;;;;;;15.90;99.90;;;;;;5072304;28;19916;-77
2022/10/17 07:29:15;;;;;;;;;;;15.90;99.90;;;;;;5074712;28;19931;-77
2022/10/17 07:31:40;;;;;;;;;;;15.90;99.90;;;;;;5052504;28;20525;-78
2022/10/17 07:34:06;;;;;;;;;;;15.90;99.90;;;;;;5070753;28;19916;-77
2022/10/17 07:36:31;;;;;;;;;;;15.90;99.90;;;;;;5084862;28;19966;-77
2022/10/17 07:38:57;;;;;;;;;;;15.80;99.90;;;;;;5099460;28;20023;-77
2022/10/17 07:41:22;;;;;;;;;;;15.80;99.90;;;;;;5084747;28;19938;-77
2022/10/17 07:43:48;;;;;;;;;;;15.80;99.90;;;;;;5065061;28;20003;-78
2022/10/17 07:46:13;;;;;;;;;;;15.70;99.90;;;;;;5062923;28;20015;-77
2022/10/17 07:48:39;;;;;;;;;;;15.60;99.90;;;;;;5090038;28;19916;-77
2022/10/17 07:51:05;;;;;;;;;;;15.60;99.90;;;;;;5082132;28;19931;-77
2022/10/17 07:53:31;;;;;;;;;;;15.50;99.90;;;;;;5065004;28;19912;-77
2022/10/17 07:55:56;;;;;;;;;;;15.50;99.90;;;;;;5081004;28;20033;-77
2022/10/17 07:58:22;;;;;;;;;;;15.50;99.90;;;;;;5082714;28;19916;-77
2022/10/17 08:00:49;;;;;;;;;;;15.40;99.90;;;;;;5081807;28;19941;-77
2022/10/17 08:03:15;;;;;;;;;;;15.40;99.90;;;;;;5079511;28;20276;-77
2022/10/17 08:05:40;;;;;;;;;;;15.40;99.90;;;;;;5097338;28;19927;-77
2022/10/17 08:08:06;;;;;;;;;;;15.50;99.90;;;;;;5093310;28;19958;-77
2022/10/17 08:10:31;;;;;;;;;;;15.50;99.90;;;;;;5082833;28;19923;-77
2022/10/17 08:12:57;;;;;;;;;;;15.50;99.90;;;;;;5091109;28;20240;-77
2022/10/17 08:15:23;;;;;;;;;;;15.50;99.90;;;;;;5093347;28;19930;-77
2022/10/17 08:17:49;;;;;;;;;;;15.60;99.90;;;;;;5080619;28;19916;-77
2022/10/17 08:20:14;;;;;;;;;;;15.70;99.90;;;;;;5064875;28;19935;-77
2022/10/17 08:22:40;;;;;;;;;;;15.90;99.90;;;;;;5088057;28;19977;-77
2022/10/17 08:25:06;;;;;;;;;;;16.00;99.90;;;;;;5084144;28;19939;-77
2022/10/17 08:27:32;;;;;;;;;;;16.20;99.90;;;;;;5064651;28;20053;-78
2022/10/17 08:29:58;;;;;;;;;;;16.30;99.90;;;;;;5082042;28;20359;-77
2022/10/17 08:32:25;;;;;;;;;;;16.20;99.90;;;;;;5082271;28;19992;-77
2022/10/17 08:34:51;;;;;;;;;;;16.30;99.90;;;;;;5075700;28;20107;-77
2022/10/17 08:37:17;;;;;;;;;;;16.30;99.90;;;;;;5078580;28;19931;-77
2022/10/17 08:39:43;;;;;;;;;;;16.40;99.90;;;;;;5079678;28;19962;-77
2022/10/17 08:42:08;;;;;;;;;;;16.40;99.90;;;;;;5080342;28;19931;-77
2022/10/17 08:44:52;;;;;;;;;;;16.30;99.90;;;;;;5080100;28;19939;-77
2022/10/17 08:47:25;;;;;;;;;;;16.40;99.90;;;;;;5080369;28;20007;-77
2022/10/17 08:49:51;;;;;;;;;;;16.40;99.90;;;;;;5080681;28;19927;-77
2022/10/17 08:52:29;;;;;;;;;;;16.40;99.90;;;;;;5094138;28;20207;-77
2022/10/17 08:54:55;;;;;;;;;;;16.40;99.90;;;;;;5081147;28;19916;-77
2022/10/17 08:57:20;;;;;;;;;;;16.50;99.90;;;;;;5097494;28;19912;-77
2022/10/17 08:59:49;;;;;;;;;;;16.50;99.90;;;;;;5085365;28;20045;-77
2022/10/17 09:02:35;;;;;;;;;;;16.60;99.90;;;;;;5090148;28;20422;-77
2022/10/17 09:05:01;;;;;;;;;;;16.70;99.90;;;;;;5067217;28;19924;-77
2022/10/17 09:07:27;;;;;;;;;;;16.80;99.90;;;;;;5094595;28;19974;-77
2022/10/17 09:10:01;;;;;;;;;;;16.90;99.90;;;;;;5083707;28;19963;-77
2022/10/17 09:12:33;;;;;;;;;;;17.00;99.90;;;;;;5083473;28;19928;-77
2022/10/17 09:15:10;;;;;;;;;;;17.00;99.90;;;;;;5086525;28;20055;-76
2022/10/17 09:17:54;;;;;;;;;;;17.10;99.90;;;;;;5066137;28;19915;-76
2022/10/17 09:20:23;;;;;;;;;;;17.20;99.90;;;;;;5065997;28;19916;-77
2022/10/17 09:22:52;;;;;;;;;;;17.40;99.90;;;;;;5083373;28;19923;-76
2022/10/17 09:25:18;;;;;;;;;;;17.50;99.90;;;;;;5087083;28;19923;-76
2022/10/17 09:27:48;;;;;;;;;;;17.50;99.90;;;;;;5097758;28;19930;-77
2022/10/17 09:30:14;;;;;;;;;;;17.60;99.90;;;;;;5061192;28;20009;-77
2022/10/17 09:32:41;;;;;;;;;;;17.80;99.90;;;;;;5059907;28;20019;-76
2022/10/17 09:35:13;;;;;;;;;;;17.90;99.90;;;;;;5084768;28;20435;-76
2022/10/17 09:37:39;;;;;;;;;;;18.00;99.90;;;;;;5091815;27;20375;-77
2022/10/17 09:40:06;;;;;;;;;;;18.10;99.90;;;;;;5064866;28;19916;-76
2022/10/17 09:42:34;;;;;;;;;;;18.20;99.90;;;;;;5057032;28;19995;-76
2022/10/17 09:44:59;;;;;;;;;;;18.20;99.90;;;;;;5063668;28;19923;-77
2022/10/17 09:47:27;;;;;;;;;;;18.30;99.90;;;;;;5082369;28;19920;-76
2022/10/17 09:49:53;;;;;;;;;;;18.30;99.90;;;;;;5062332;28;20316;-77
2022/10/17 09:52:32;;;;;;;;;;;18.20;99.90;;;;;;5092164;28;19924;-77
2022/10/17 09:55:03;;;;;;;;;;;18.10;99.90;;;;;;5091721;28;19916;-76
2022/10/17 09:57:48;;;;;;;;;;;18.20;99.90;;;;;;5066497;28;20094;-77
2022/10/17 10:00:19;;;;;;;;;;;18.80;99.90;;;;;;5084891;28;20408;-76
2022/10/17 10:02:45;;;;;;;;;;;19.50;99.90;;;;;;5059395;28;20003;-76
2022/10/17 10:05:17;;;;;;;;;;;20.30;99.90;;;;;;5064859;28;20566;-76
2022/10/17 10:07:57;;;;;;;;;;;21.30;99.90;;;;;;5065365;28;20329;-76
2022/10/17 10:10:24;;;;;;;;;;;21.70;99.90;;;;;;5053216;28;19916;-76
2022/10/17 10:13:02;;;;;;;;;;;22.00;99.90;;;;;;5053900;28;19927;-76
2022/10/17 10:15:36;;;;;;;;;;;21.80;99.90;;;;;;5050154;28;20007;-77
2022/10/17 10:18:02;;;;;;;;;;;21.40;99.90;;;;;;5051656;28;20046;-76
2022/10/17 10:20:33;;;;;;;;;;;21.70;99.90;;;;;;5053140;28;21860;-76
2022/10/17 10:23:05;;;;;;;;;;;22.50;99.90;;;;;;5050907;28;20514;-77
2022/10/17 10:25:31;;;;;;;;;;;22.90;99.90;;;;;;5058127;28;20444;-78
2022/10/17 10:27:57;;;;;;;;;;;22.90;99.90;;;;;;5077847;28;19959;-77
2022/10/17 10:30:28;;;;;;;;;;;22.60;99.90;;;;;;5064088;28;20311;-77
2022/10/17 10:32:55;;;;;;;;;;;22.30;99.90;;;;;;5057727;28;20034;-81
2022/10/17 10:35:26;;;;;;;;;;;22.20;99.90;;;;;;5056004;28;20385;-76
2022/10/17 10:37:52;;;;;;;;;;;22.70;99.90;;;;;;5058660;28;20002;-77
2022/10/17 10:40:23;;;;;;;;;;;24.00;99.90;;;;;;5061539;28;19923;-78
2022/10/17 10:42:50;;;;;;;;;;;24.40;99.90;;;;;;5066523;28;19924;-78
2022/10/17 10:45:18;;;;;;;;;;;24.90;98.30;;;;;;5064398;28;19939;-78
2022/10/17 10:47:57;;;;;;;;;;;24.70;93.50;;;;;;5059340;28;19996;-79
2022/10/17 10:50:29;;;;;;;;;;;23.80;94.50;;;;;;5057356;28;19917;-79
2022/10/17 10:53:06;;;;;;;;;;;22.90;97.60;;;;;;5065550;28;19920;-77
2022/10/17 10:55:34;;;;;;;;;;;22.60;99.90;;;;;;5052364;28;19917;-78
2022/10/17 10:58:02;;;;;;;;;;;23.10;99.90;;;;;;5063443;28;20372;-78
2022/10/17 11:00:29;;;;;;;;;;;24.40;99.90;;;;;;5059991;28;19919;-76
2022/10/17 11:03:30;;;;;;;;;;;25.30;96.40;;;;;;5058789;28;19939;-77
2022/10/17 11:06:01;;;;;;;;;;;26.00;93.60;;;;;;4999604;28;20027;-76
2022/10/17 11:08:37;;;;;;;;;;;26.20;87.30;;;;;;5037911;28;19959;-75
2022/10/17 11:11:02;;;;;;;;;;;25.70;84.50;;;;;;5050679;28;19923;-75
2022/10/17 11:13:35;;;;;;;;;;;24.90;89.00;;;;;;5051238;28;19920;-75
2022/10/17 11:16:29;;;;;;;;;;;24.50;92.40;;;;;;5058258;28;20276;-75
2022/10/17 11:19:01;;;;;;;;;;;24.00;92.10;;;;;;4981219;28;20049;-75
2022/10/17 11:21:27;;;;;;;;;;;24.10;95.80;;;;;;5057744;28;20177;-76
2022/10/17 11:24:02;;;;;;;;;;;24.30;95.30;;;;;;5056376;28;19916;-76
2022/10/17 11:26:30;;;;;;;;;;;24.30;93.10;;;;;;5055200;28;19916;-76
2022/10/17 11:28:57;;;;;;;;;;;24.10;93.90;;;;;;5043651;28;19991;-76
2022/10/17 11:31:24;;;;;;;;;;;23.80;92.90;;;;;;5062435;28;20303;-76
2022/10/17 11:33:55;;;;;;;;;;;23.40;91.50;;;;;;5062380;28;20423;-75
2022/10/17 11:36:24;;;;;;;;;;;23.40;93.90;;;;;;5034543;28;20312;-76
2022/10/17 11:38:59;;;;;;;;;;;23.50;93.70;;;;;;5041673;28;19990;-76
2022/10/17 11:41:54;;;;;;;;;;;23.40;93.00;;;;;;5044699;28;19916;-76
2022/10/17 11:44:23;;;;;;;;;;;23.30;94.00;;;;;;5038052;28;19924;-76
2022/10/17 11:46:51;;;;;;;;;;;23.20;89.60;;;;;;5035165;28;19916;-75
2022/10/17 11:49:22;;;;;;;;;;;23.00;92.10;;;;;;5053636;28;19926;-75
2022/10/17 11:51:51;;;;;;;;;;;22.70;94.30;;;;;;5052410;28;19932;-75
2022/10/17 11:54:20;;;;;;;;;;;22.80;94.70;;;;;;5036543;28;19919;-75
2022/10/17 11:56:51;;;;;;;;;;;22.60;94.50;;;;;;5053980;28;19953;-76
2022/10/17 11:59:35;;;;;;;;;;;22.40;95.70;;;;;;5051047;28;19928;-76
2022/10/17 12:02:04;;;;;;;;;;;22.40;99.90;;;;;;5058298;28;19920;-76
2022/10/17 12:04:29;;;;;;;;;;;22.30;95.50;;;;;;5054664;28;19928;-75
2022/10/17 12:06:54;;;;;;;;;;;21.90;93.80;;;;;;5065352;28;19982;-76
2022/10/17 12:09:39;;;;;;;;;;;21.70;97.20;;;;;;5060882;28;19916;-75
2022/10/17 12:12:05;;;;;;;;;;;21.70;95.80;;;;;;5060279;28;19930;-75
2022/10/17 12:14:33;;;;;;;;;;;21.70;96.50;;;;;;5087989;28;19927;-76
2022/10/17 12:17:00;;;;;;;;;;;21.60;97.20;;;;;;5049728;28;19939;-75
2022/10/17 12:19:31;;;;;;;;;;;21.30;97.00;;;;;;5067391;28;20384;-75
2022/10/17 12:22:17;;;;;;;;;;;21.30;99.90;;;;;;5045734;28;20042;-76
2022/10/17 12:24:51;;;;;;;;;;;21.00;97.20;;;;;;5066089;28;19956;-75
2022/10/17 12:27:20;;;;;;;;;;;20.90;97.20;;;;;;5065688;28;20251;-75
2022/10/17 12:29:47;;;;;;;;;;;20.70;98.80;;;;;;5065705;28;19920;-75
2022/10/17 12:32:13;;;;;;;;;;;20.50;99.50;;;;;;5065906;28;19932;-75
2022/10/17 12:34:38;;;;;;;;;;;20.40;99.50;;;;;;5045803;28;19916;-76
2022/10/17 12:37:08;;;;;;;;;;;20.30;99.90;;;;;;5058524;28;21515;-76
2022/10/17 12:39:34;;;;;;;;;;;20.70;99.90;;;;;;5046596;28;19952;-75
2022/10/17 12:41:59;;;;;;;;;;;20.80;99.90;;;;;;5030986;28;20043;-77
2022/10/17 12:44:25;;;;;;;;;;;20.80;99.80;;;;;;5050403;28;20177;-76
2022/10/17 12:47:09;;;;;;;;;;;20.60;99.90;;;;;;5052237;28;19998;-75
2022/10/17 12:49:36;;;;;;;;;;;20.60;99.90;;;;;;5033731;28;20024;-76
2022/10/17 12:52:14;;;;;;;;;;;20.90;99.30;;;;;;5037517;28;20563;-76
2022/10/17 12:54:42;;;;;;;;;;;20.80;99.90;;;;;;5053137;28;19927;-75
2022/10/17 12:57:33;;;;;;;;;;;20.80;97.40;;;;;;5054741;28;19916;-75
2022/10/17 13:00:11;;;;;;;;;;;20.50;99.90;;;;;;5047587;28;20214;-76
2022/10/17 13:02:37;;;;;;;;;;;20.40;96.70;;;;;;5053283;28;19916;-76
2022/10/17 13:05:07;;;;;;;;;;;20.30;99.90;;;;;;5075503;28;19931;-75
2022/10/17 13:07:34;;;;;;;;;;;20.40;99.90;;;;;;5066214;28;19962;-75
2022/10/17 13:10:03;;;;;;;;;;;20.40;99.90;;;;;;5080857;28;19946;-75
2022/10/17 13:12:31;;;;;;;;;;;20.40;99.90;;;;;;5083900;28;19934;-75
2022/10/17 13:14:56;;;;;;;;;;;20.40;99.90;;;;;;5094350;28;19915;-75
2022/10/17 13:17:24;;;;;;;;;;;20.40;99.90;;;;;;5103971;28;19923;-75
2022/10/17 13:19:49;;;;;;;;;;;20.30;97.80;;;;;;5074070;28;19943;-75
2022/10/17 13:22:17;;;;;;;;;;;20.10;96.80;;;;;;5089765;28;19915;-75
2022/10/17 13:24:43;;;;;;;;;;;19.90;99.90;;;;;;5095482;27;20310;-75
2022/10/17 13:27:22;;;;;;;;;;;19.60;98.90;;;;;;5084316;28;19924;-75
2022/10/17 13:29:48;;;;;;;;;;;19.60;99.90;;;;;;5086066;28;19919;-74
2022/10/17 13:32:13;;;;;;;;;;;19.70;99.90;;;;;;5072091;28;19924;-75
2022/10/17 13:34:39;;;;;;;;;;;19.70;99.90;;;;;;5084981;28;20139;-75
2022/10/17 13:37:06;;;;;;;;;;;19.70;99.90;;;;;;5079591;28;19912;-75
2022/10/17 13:39:38;;;;;;;;;;;20.00;99.90;;;;;;5098412;27;19916;-75
2022/10/17 13:42:04;;;;;;;;;;;20.30;97.70;;;;;;4709076;28;10000475;-74
2022/10/17 13:44:33;;;;;;;;;;;20.70;96.90;;;;;;5064919;28;19923;-75
2022/10/17 13:46:59;;;;;;;;;;;21.00;93.50;;;;;;5083404;28;19957;-75
2022/10/17 13:49:24;;;;;;;;;;;20.90;88.40;;;;;;5104119;28;19915;-75
2022/10/17 13:51:51;;;;;;;;;;;20.70;91.80;;;;;;5086150;28;19931;-75
2022/10/17 13:54:18;;;;;;;;;;;20.70;90.80;;;;;;5058604;28;20429;-75
2022/10/17 13:56:44;;;;;;;;;;;20.60;92.10;;;;;;5076856;28;19927;-75
2022/10/17 13:59:21;;;;;;;;;;;20.60;91.20;;;;;;5085205;28;19912;-75
2022/10/17 14:01:48;;;;;;;;;;;20.70;92.20;;;;;;5078288;28;19993;-75
2022/10/17 14:04:14;;;;;;;;;;;20.90;92.80;;;;;;5074898;28;19975;-74
2022/10/17 14:06:43;;;;;;;;;;;20.90;89.90;;;;;;5082100;28;19930;-75
2022/10/17 14:09:17;;;;;;;;;;;21.00;90.00;;;;;;5068688;28;19916;-75
2022/10/17 14:11:44;;;;;;;;;;;21.00;90.30;;;;;;5069665;28;20664;-75
2022/10/17 14:14:17;;;;;;;;;;;20.90;91.70;;;;;;5072769;28;19999;-74
2022/10/17 14:16:43;;;;;;;;;;;20.80;91.00;;;;;;5049541;28;19927;-75
2022/10/17 14:19:18;;;;;;;;;;;20.50;90.10;;;;;;5076201;28;19920;-76
2022/10/17 14:21:47;;;;;;;;;;;20.10;90.00;;;;;;5077852;28;19920;-75
2022/10/17 14:24:25;;;;;;;;;;;19.80;91.30;;;;;;5078805;28;20124;-74